Time;durP1;ratioP1;P1;durP2;ratioP2;P2;SDS_P1;SDS_P2;PMS_P1;PMS_P2;Temp;Humidity;BMP_temperature;BMP_pressure;BME280_temperature;BME280_humidity;BME280_pressure;Samples;Min_cycle;Max_cycle;Signal;HPM_P1;HPM_P2
2023/04/17 00:01:25;;;;;;;0.10;0.10;;;10.30;99.90;;;;;;5059515;28;20204;-83
2023/04/17 00:03:51;;;;;;;0.10;0.10;;;10.30;99.90;;;;;;5063558;28;20223;-83
2023/04/17 00:06:18;;;;;;;0.10;0.10;;;10.30;99.90;;;;;;5058604;28;20189;-83
2023/04/17 00:08:44;;;;;;;0.10;0.10;;;10.40;99.90;;;;;;5064286;28;20207;-83
2023/04/17 00:11:09;;;;;;;0.10;0.10;;;10.40;99.90;;;;;;5062350;28;20188;-83
2023/04/17 00:13:35;;;;;;;0.10;0.10;;;10.50;99.90;;;;;;5065353;28;20243;-83
2023/04/17 00:16:01;;;;;;;0.10;0.10;;;10.50;99.90;;;;;;5066093;28;20680;-84
2023/04/17 00:18:27;;;;;;;0.10;0.10;;;10.40;99.90;;;;;;5067625;28;21202;-84
2023/04/17 00:20:53;;;;;;;0.10;0.10;;;10.40;99.90;;;;;;5065465;28;20180;-84
2023/04/17 00:23:18;;;;;;;0.10;0.10;;;10.50;99.90;;;;;;5065665;28;21317;-83
2023/04/17 00:25:44;;;;;;;0.10;0.10;;;10.40;99.90;;;;;;5064221;28;20208;-84
2023/04/17 00:28:10;;;;;;;0.10;0.10;;;10.50;99.90;;;;;;5059306;28;20202;-82
2023/04/17 00:30:35;;;;;;;0.10;0.10;;;10.40;99.90;;;;;;5063457;28;20272;-84
2023/04/17 00:33:01;;;;;;;0.10;0.10;;;10.50;99.90;;;;;;5061807;28;20231;-82
2023/04/17 00:35:26;;;;;;;0.10;0.10;;;10.70;99.90;;;;;;5067383;28;20219;-84
2023/04/17 00:37:52;;;;;;;0.10;0.10;;;10.80;99.90;;;;;;5064448;28;20177;-84
2023/04/17 00:40:17;;;;;;;0.10;0.10;;;10.90;99.90;;;;;;5061350;28;20184;-84
2023/04/17 00:42:45;;;;;;;0.10;0.10;;;10.90;99.90;;;;;;5066995;28;20195;-84
2023/04/17 00:45:10;;;;;;;0.10;0.10;;;11.00;99.90;;;;;;5063886;28;20204;-83
2023/04/17 00:47:37;;;;;;;0.10;0.10;;;11.00;99.90;;;;;;5065716;28;20185;-82
2023/04/17 00:50:03;;;;;;;0.10;0.10;;;11.00;99.90;;;;;;5064471;28;20268;-84
2023/04/17 00:52:29;;;;;;;0.10;0.10;;;11.10;99.90;;;;;;5063677;28;20185;-83
2023/04/17 00:54:57;;;;;;;0.10;0.10;;;11.00;99.90;;;;;;5059936;28;20232;-83
2023/04/17 00:57:23;;;;;;;0.10;0.10;;;11.10;99.90;;;;;;5065099;28;20197;-84
2023/04/17 00:59:49;;;;;;;0.10;0.10;;;11.10;99.90;;;;;;5062920;28;20593;-83
2023/04/17 01:02:15;;;;;;;0.10;0.10;;;11.10;99.90;;;;;;5062976;28;20177;-84
2023/04/17 01:04:41;;;;;;;0.10;0.10;;;11.10;99.90;;;;;;5065953;28;20204;-84
2023/04/17 01:07:07;;;;;;;0.10;0.10;;;11.10;99.90;;;;;;5063534;28;20219;-84
2023/04/17 01:09:33;;;;;;;0.10;0.10;;;11.20;99.90;;;;;;5060211;28;20189;-82
2023/04/17 01:12:19;;;;;;;0.10;0.10;;;11.10;99.90;;;;;;5061368;28;20553;-83
2023/04/17 01:14:45;;;;;;;0.10;0.10;;;11.20;99.90;;;;;;5060078;28;20212;-84
2023/04/17 01:17:13;;;;;;;0.10;0.10;;;11.20;99.90;;;;;;5059094;28;20209;-84
2023/04/17 01:19:40;;;;;;;0.10;0.10;;;11.10;99.90;;;;;;5062353;28;20684;-84
2023/04/17 01:22:05;;;;;;;0.10;0.10;;;11.10;99.90;;;;;;5064701;28;20238;-83
2023/04/17 01:24:31;;;;;;;0.10;0.10;;;11.10;99.90;;;;;;5065534;28;20247;-83
2023/04/17 01:26:57;;;;;;;0.10;0.10;;;11.10;99.90;;;;;;5059918;28;20189;-82
2023/04/17 01:29:22;;;;;;;0.10;0.10;;;10.90;99.90;;;;;;5060210;28;20181;-83
2023/04/17 01:31:48;;;;;;;0.10;0.10;;;10.80;99.90;;;;;;5063080;28;20263;-83
2023/04/17 01:34:13;;;;;;;0.10;0.10;;;10.50;99.90;;;;;;5060217;28;20236;-83
2023/04/17 01:36:39;;;;;;;0.10;0.10;;;10.60;99.90;;;;;;5060028;28;20383;-82
2023/04/17 01:39:04;;;;;;;0.10;0.10;;;10.40;99.90;;;;;;5062406;28;20177;-83
2023/04/17 01:41:30;;;;;;;0.10;0.10;;;10.40;99.90;;;;;;5058443;28;20927;-83
2023/04/17 01:43:55;;;;;;;0.10;0.10;;;10.60;99.90;;;;;;5059708;28;20656;-83
2023/04/17 01:46:21;;;;;;;0.10;0.10;;;10.60;99.90;;;;;;5063090;28;20801;-83
2023/04/17 01:48:46;;;;;;;0.10;0.10;;;10.60;99.90;;;;;;5062553;28;20667;-83
2023/04/17 01:51:12;;;;;;;0.10;0.10;;;10.70;99.90;;;;;;5063037;28;20193;-83
2023/04/17 01:53:38;;;;;;;0.10;0.10;;;10.80;99.90;;;;;;5066491;28;20189;-83
2023/04/17 01:56:04;;;;;;;0.10;0.10;;;10.80;99.90;;;;;;5060786;28;20213;-83
2023/04/17 01:58:30;;;;;;;0.10;0.10;;;10.90;99.90;;;;;;5063342;28;21555;-83
2023/04/17 02:00:56;;;;;;;0.10;0.10;;;10.90;99.90;;;;;;5063867;28;20762;-83
2023/04/17 02:03:23;;;;;;;0.10;0.10;;;10.90;99.90;;;;;;5065189;28;20228;-83
2023/04/17 02:05:49;;;;;;;0.10;0.10;;;10.90;99.90;;;;;;5063647;28;20208;-83
2023/04/17 02:08:15;;;;;;;0.10;0.10;;;10.90;99.90;;;;;;5065931;28;20181;-83
2023/04/17 02:10:41;;;;;;;0.10;0.10;;;11.00;99.90;;;;;;5064974;28;20191;-83
2023/04/17 02:13:07;;;;;;;0.10;0.10;;;11.00;99.90;;;;;;5066828;28;20177;-82
2023/04/17 02:15:33;;;;;;;0.10;0.10;;;11.00;99.90;;;;;;5066423;28;20303;-83
2023/04/17 02:17:58;;;;;;;0.10;0.10;;;11.00;99.90;;;;;;5060779;28;20268;-83
2023/04/17 02:20:24;;;;;;;0.10;0.10;;;11.00;99.90;;;;;;5063710;28;20185;-82
2023/04/17 02:22:50;;;;;;;0.10;0.10;;;11.00;99.90;;;;;;5064593;28;20225;-83
2023/04/17 02:25:15;;;;;;;0.10;0.10;;;11.00;99.90;;;;;;5063575;28;20197;-83
2023/04/17 02:27:41;;;;;;;0.10;0.10;;;11.10;99.90;;;;;;5063862;28;20241;-83
2023/04/17 02:30:07;;;;;;;0.10;0.10;;;11.10;99.90;;;;;;5062480;28;20192;-82
2023/04/17 02:32:33;;;;;;;0.10;0.10;;;11.00;99.90;;;;;;5067512;28;20241;-83
2023/04/17 02:34:59;;;;;;;0.10;0.10;;;10.80;99.90;;;;;;5059666;28;20298;-82
2023/04/17 02:37:24;;;;;;;0.10;0.10;;;10.70;99.90;;;;;;5067507;28;20685;-83
2023/04/17 02:39:50;;;;;;;0.10;0.10;;;10.60;99.90;;;;;;5066602;28;20259;-83
2023/04/17 02:42:15;;;;;;;0.10;0.10;;;10.40;99.90;;;;;;5063722;28;20184;-83
2023/04/17 02:44:41;;;;;;;0.00;0.00;;;10.50;99.90;;;;;;5062214;28;20201;-83
2023/04/17 02:47:06;;;;;;;0.10;0.10;;;10.50;99.90;;;;;;5062490;28;20410;-82
2023/04/17 02:49:32;;;;;;;0.10;0.10;;;10.60;99.90;;;;;;5063916;28;20184;-83
2023/04/17 02:51:57;;;;;;;0.10;0.10;;;10.70;99.90;;;;;;5067254;28;20189;-82
2023/04/17 02:54:23;;;;;;;0.10;0.10;;;10.70;99.90;;;;;;5064602;28;20619;-82
2023/04/17 02:56:49;;;;;;;0.10;0.10;;;10.80;99.90;;;;;;5068586;28;20212;-83
2023/04/17 02:59:15;;;;;;;0.10;0.10;;;10.70;99.90;;;;;;5067828;28;20212;-83
2023/04/17 03:01:41;;;;;;;0.10;0.10;;;10.70;99.90;;;;;;5072909;28;20603;-82
2023/04/17 03:04:06;;;;;;;0.10;0.10;;;10.70;99.90;;;;;;5073747;28;20185;-83
2023/04/17 03:06:32;;;;;;;0.10;0.10;;;10.50;99.90;;;;;;5067841;28;20189;-81
2023/04/17 03:08:58;;;;;;;0.10;0.10;;;10.60;99.90;;;;;;5064679;28;20234;-82
2023/04/17 03:11:23;;;;;;;0.10;0.10;;;10.60;99.90;;;;;;5070747;28;20230;-82
2023/04/17 03:13:49;;;;;;;0.10;0.10;;;10.60;99.90;;;;;;5068978;28;20219;-82
2023/04/17 03:16:15;;;;;;;0.10;0.10;;;10.60;99.90;;;;;;5067952;28;20255;-82
2023/04/17 03:18:40;;;;;;;0.10;0.10;;;10.60;99.90;;;;;;5067856;28;20656;-82
2023/04/17 03:21:06;;;;;;;0.10;0.10;;;10.50;99.90;;;;;;5064282;28;20185;-83
2023/04/17 03:23:32;;;;;;;0.10;0.10;;;10.40;99.90;;;;;;5070349;28;20192;-82
2023/04/17 03:25:58;;;;;;;0.10;0.10;;;10.20;99.90;;;;;;5063615;28;20212;-83
2023/04/17 03:28:23;;;;;;;0.10;0.10;;;10.30;99.90;;;;;;5065151;28;20224;-82
2023/04/17 03:30:50;;;;;;;0.10;0.10;;;10.30;99.90;;;;;;5067252;28;20196;-82
2023/04/17 03:33:16;;;;;;;0.10;0.10;;;10.40;99.90;;;;;;5067427;28;20196;-82
2023/04/17 03:35:42;;;;;;;0.10;0.10;;;10.50;99.90;;;;;;5068689;28;20304;-82
2023/04/17 03:38:09;;;;;;;0.10;0.10;;;10.50;99.90;;;;;;5068561;28;20543;-82
2023/04/17 03:40:35;;;;;;;0.10;0.10;;;10.50;99.90;;;;;;5066924;28;20755;-82
2023/04/17 03:43:01;;;;;;;0.10;0.10;;;10.50;99.90;;;;;;5071210;28;20189;-83
2023/04/17 03:45:26;;;;;;;0.10;0.10;;;10.40;99.90;;;;;;5067112;28;20204;-82
2023/04/17 03:47:52;;;;;;;0.10;0.10;;;10.50;99.90;;;;;;5068585;28;20236;-83
2023/04/17 03:50:17;;;;;;;0.10;0.10;;;10.50;99.90;;;;;;5064562;28;20199;-82
2023/04/17 03:52:43;;;;;;;0.10;0.10;;;10.50;99.90;;;;;;5068766;28;20280;-83
2023/04/17 03:55:09;;;;;;;0.10;0.10;;;10.50;99.90;;;;;;5069358;28;20203;-83
2023/04/17 03:57:35;;;;;;;0.10;0.10;;;10.60;99.90;;;;;;5068526;28;20212;-82
2023/04/17 04:00:00;;;;;;;0.10;0.10;;;10.50;99.90;;;;;;5061659;28;20816;-82
2023/04/17 04:02:26;;;;;;;0.10;0.10;;;10.50;99.90;;;;;;5065567;28;20258;-83
2023/04/17 04:04:52;;;;;;;0.10;0.10;;;10.40;99.90;;;;;;5063118;28;20209;-82
2023/04/17 04:07:17;;;;;;;0.10;0.10;;;10.40;99.90;;;;;;5070338;28;20181;-83
2023/04/17 04:09:43;;;;;;;0.10;0.10;;;10.30;99.90;;;;;;5068180;28;20185;-82
2023/04/17 04:12:09;;;;;;;0.10;0.10;;;10.30;99.90;;;;;;5067051;28;20192;-83
2023/04/17 04:14:34;;;;;;;0.10;0.10;;;10.30;99.90;;;;;;5069122;28;20475;-82
2023/04/17 04:17:00;;;;;;;0.10;0.10;;;10.30;99.90;;;;;;5068814;28;20228;-83
2023/04/17 04:19:25;;;;;;;0.10;0.10;;;10.20;99.90;;;;;;5069534;28;20173;-83
2023/04/17 04:21:52;;;;;;;0.00;0.00;;;10.10;99.90;;;;;;5062978;28;20174;-82
2023/04/17 04:24:19;;;;;;;0.00;0.00;;;10.10;99.90;;;;;;5066277;28;20212;-83
2023/04/17 04:26:48;;;;;;;0.10;0.10;;;10.20;99.90;;;;;;5067712;28;20197;-84
2023/04/17 04:29:15;;;;;;;0.10;0.10;;;10.20;99.90;;;;;;5066520;28;20192;-84
2023/04/17 04:31:41;;;;;;;0.10;0.10;;;10.10;99.90;;;;;;5061612;28;20186;-83
2023/04/17 04:34:08;;;;;;;0.10;0.10;;;10.00;99.90;;;;;;5066016;28;20268;-82
2023/04/17 04:36:40;;;;;;;0.10;0.10;;;10.10;99.90;;;;;;5062936;28;20208;-81
2023/04/17 04:39:06;;;;;;;0.10;0.10;;;10.10;99.90;;;;;;5059623;28;20283;-83
2023/04/17 04:41:32;;;;;;;0.10;0.10;;;10.00;99.90;;;;;;5063536;28;20222;-83
2023/04/17 04:44:00;;;;;;;0.10;0.10;;;10.00;99.90;;;;;;5064074;28;20544;-84
2023/04/17 04:46:26;;;;;;;0.10;0.10;;;9.90;99.90;;;;;;5065214;28;20272;-83
2023/04/17 04:48:51;;;;;;;0.10;0.10;;;9.90;99.90;;;;;;5067018;28;20185;-84
2023/04/17 04:51:20;;;;;;;0.10;0.10;;;9.90;99.90;;;;;;5062021;28;20212;-82
2023/04/17 04:53:46;;;;;;;0.10;0.10;;;9.80;99.90;;;;;;5064770;28;20673;-84
2023/04/17 04:56:11;;;;;;;0.10;0.10;;;9.80;99.90;;;;;;5066603;28;20212;-82
2023/04/17 04:58:40;;;;;;;0.10;0.10;;;9.90;99.90;;;;;;5064777;28;20588;-82
2023/04/17 05:01:06;;;;;;;0.10;0.10;;;9.90;99.90;;;;;;5066954;28;20181;-82
2023/04/17 05:03:31;;;;;;;0.20;0.20;;;9.90;99.90;;;;;;5066032;28;20280;-82
2023/04/17 05:05:57;;;;;;;0.10;0.10;;;9.90;99.90;;;;;;5064198;28;20976;-83
2023/04/17 05:08:23;;;;;;;0.10;0.10;;;9.90;99.90;;;;;;5058545;28;20665;-83
2023/04/17 05:10:48;;;;;;;0.10;0.10;;;9.80;99.90;;;;;;5062159;28;20272;-84
2023/04/17 05:13:14;;;;;;;0.10;0.10;;;9.80;99.90;;;;;;5064894;28;20189;-83
2023/04/17 05:15:42;;;;;;;0.00;0.00;;;9.80;99.90;;;;;;5065994;28;20752;-83
2023/04/17 05:18:08;;;;;;;0.10;0.10;;;9.80;99.90;;;;;;5059756;28;20215;-81
2023/04/17 05:20:33;;;;;;;0.10;0.10;;;9.80;99.90;;;;;;5062434;28;20643;-82
2023/04/17 05:22:59;;;;;;;0.10;0.10;;;9.70;99.90;;;;;;5060192;28;20196;-84
2023/04/17 05:25:24;;;;;;;0.10;0.10;;;9.80;99.90;;;;;;5058219;28;20212;-83
2023/04/17 05:27:50;;;;;;;0.10;0.10;;;9.80;99.90;;;;;;5062886;28;20191;-84
2023/04/17 05:30:15;;;;;;;0.10;0.10;;;10.00;99.90;;;;;;5064304;28;20188;-83
2023/04/17 05:32:41;;;;;;;0.10;0.10;;;10.00;99.90;;;;;;5060983;28;20272;-84
2023/04/17 05:35:07;;;;;;;0.10;0.10;;;10.00;99.90;;;;;;5060958;28;20358;-83
2023/04/17 05:37:32;;;;;;;0.10;0.10;;;10.10;99.90;;;;;;5064323;28;20203;-84
2023/04/17 05:40:00;;;;;;;0.10;0.10;;;10.30;99.90;;;;;;5062764;28;20188;-83
2023/04/17 05:42:25;;;;;;;0.00;0.00;;;10.30;99.90;;;;;;5060193;28;20177;-84
2023/04/17 05:44:51;;;;;;;0.10;0.10;;;10.30;99.90;;;;;;5064583;28;20205;-84
2023/04/17 05:47:16;;;;;;;0.10;0.10;;;10.40;99.90;;;;;;5063041;28;20189;-83
2023/04/17 05:49:43;;;;;;;0.40;0.40;;;10.40;99.90;;;;;;5060152;28;20679;-82
2023/04/17 05:52:09;;;;;;;0.10;0.10;;;10.40;99.90;;;;;;5059260;28;20196;-84
2023/04/17 05:54:34;;;;;;;0.10;0.10;;;10.50;99.90;;;;;;5063534;28;20322;-84
2023/04/17 05:57:01;;;;;;;0.30;0.30;;;10.80;99.90;;;;;;5064972;28;20315;-84
2023/04/17 05:59:26;;;;;;;0.10;0.10;;;10.90;99.90;;;;;;5065775;28;20197;-82
2023/04/17 06:01:52;;;;;;;0.10;0.10;;;11.00;99.90;;;;;;5063645;28;20285;-83
2023/04/17 06:04:17;;;;;;;0.10;0.10;;;11.20;99.90;;;;;;5061333;28;20238;-84
2023/04/17 06:06:43;;;;;;;0.03;0.03;;;11.20;99.90;;;;;;5057221;28;20211;-84
2023/04/17 06:09:09;;;;;;;0.10;0.10;;;11.40;99.90;;;;;;5058572;28;20185;-84
2023/04/17 06:11:35;;;;;;;0.10;0.10;;;11.30;99.90;;;;;;5059891;28;20213;-83
2023/04/17 06:14:01;;;;;;;0.10;0.10;;;11.40;99.90;;;;;;5060897;28;20200;-84
2023/04/17 06:16:27;;;;;;;0.10;0.10;;;11.50;99.90;;;;;;5051385;28;20539;-84
2023/04/17 06:18:52;;;;;;;0.00;0.00;;;11.70;99.90;;;;;;5045606;28;20227;-84
2023/04/17 06:21:18;;;;;;;0.10;0.10;;;11.50;99.90;;;;;;5044496;28;20331;-83
2023/04/17 06:23:43;;;;;;;0.10;0.10;;;11.60;99.90;;;;;;5048192;28;20299;-83
2023/04/17 06:26:09;;;;;;;0.10;0.10;;;11.50;99.90;;;;;;5049936;28;20582;-84
2023/04/17 06:28:35;;;;;;;0.10;0.10;;;11.40;99.90;;;;;;5056747;28;20185;-84
2023/04/17 06:31:00;;;;;;;0.07;0.07;;;11.40;99.90;;;;;;5058302;28;20195;-85
2023/04/17 06:33:26;;;;;;;0.10;0.10;;;11.40;99.90;;;;;;5060625;28;20578;-84
2023/04/17 06:35:52;;;;;;;0.10;0.10;;;11.30;99.90;;;;;;5056483;28;20335;-85
2023/04/17 06:38:17;;;;;;;0.10;0.10;;;11.40;99.90;;;;;;5058755;28;20917;-83
2023/04/17 06:40:42;;;;;;;0.10;0.10;;;11.40;99.90;;;;;;5059375;28;20254;-84
2023/04/17 06:43:08;;;;;;;0.10;0.10;;;11.40;99.90;;;;;;5057906;28;21086;-84
2023/04/17 06:45:34;;;;;;;0.10;0.10;;;11.30;99.90;;;;;;5057193;28;20204;-85
2023/04/17 06:48:01;;;;;;;1.33;1.33;;;11.20;99.90;;;;;;5056998;28;20180;-84
2023/04/17 06:50:27;;;;;;;0.10;0.10;;;11.20;99.90;;;;;;5072467;28;20192;-84
2023/04/17 06:52:52;;;;;;;0.07;0.07;;;11.30;99.90;;;;;;5055171;28;20214;-83
2023/04/17 06:55:18;;;;;;;0.20;0.20;;;11.40;99.90;;;;;;5061625;28;20746;-85
2023/04/17 06:57:45;;;;;;;0.10;0.10;;;11.50;99.90;;;;;;5057551;28;20193;-84
2023/04/17 07:00:11;;;;;;;0.00;0.00;;;11.60;99.90;;;;;;5057213;28;20268;-83
2023/04/17 07:02:36;;;;;;;0.10;0.10;;;11.50;99.90;;;;;;5053203;28;20762;-84
2023/04/17 07:05:05;;;;;;;0.00;0.00;;;11.60;99.90;;;;;;5054223;28;20204;-83
2023/04/17 07:07:33;;;;;;;0.10;0.10;;;11.70;99.90;;;;;;5056855;28;20330;-84
2023/04/17 07:09:58;;;;;;;0.10;0.10;;;11.70;99.90;;;;;;5052626;28;20181;-83
2023/04/17 07:12:25;;;;;;;0.10;0.10;;;11.70;99.90;;;;;;5054879;28;20619;-83
2023/04/17 07:14:51;;;;;;;0.10;0.10;;;11.90;99.90;;;;;;5060830;28;20205;-85
2023/04/17 07:17:16;;;;;;;0.10;0.10;;;11.90;99.90;;;;;;5060072;28;21182;-85
2023/04/17 07:19:42;;;;;;;0.10;0.10;;;11.60;99.90;;;;;;5058004;28;20971;-86
2023/04/17 07:22:08;;;;;;;1.23;1.23;;;11.60;99.90;;;;;;5056247;28;20182;-85
2023/04/17 07:24:34;;;;;;;0.10;0.10;;;11.70;99.90;;;;;;5057054;28;20228;-85
2023/04/17 07:27:01;;;;;;;0.00;0.00;;;11.60;99.90;;;;;;5056112;28;20220;-83
2023/04/17 07:29:27;;;;;;;0.00;0.00;;;11.60;99.90;;;;;;5056077;28;20193;-83
2023/04/17 07:31:52;;;;;;;0.00;0.00;;;11.70;99.90;;;;;;5062693;28;20185;-83
2023/04/17 07:34:18;;;;;;;0.10;0.10;;;11.70;99.90;;;;;;5064199;28;20587;-84
2023/04/17 07:36:44;;;;;;;0.10;0.10;;;11.80;99.90;;;;;;5063047;28;20205;-83
2023/04/17 07:39:10;;;;;;;0.10;0.10;;;12.00;99.90;;;;;;5066549;28;20669;-83
2023/04/17 07:41:35;;;;;;;0.10;0.10;;;12.10;99.90;;;;;;5063605;28;20189;-83
2023/04/17 07:44:04;;;;;;;0.10;0.10;;;12.10;99.90;;;;;;5060669;28;20658;-83
2023/04/17 07:46:30;;;;;;;0.10;0.10;;;12.30;99.90;;;;;;5064518;28;20180;-82
2023/04/17 07:48:57;;;;;;;0.10;0.10;;;12.60;99.90;;;;;;5069668;28;20524;-83
2023/04/17 07:51:22;;;;;;;0.10;0.10;;;12.80;99.90;;;;;;5068479;28;20192;-83
2023/04/17 07:53:48;;;;;;;0.10;0.10;;;13.10;99.90;;;;;;5064199;28;20189;-84
2023/04/17 07:56:13;;;;;;;0.10;0.10;;;13.40;99.90;;;;;;5065782;28;20589;-83
2023/04/17 07:58:39;;;;;;;0.10;0.10;;;13.40;99.90;;;;;;5064945;28;20557;-83
2023/04/17 08:01:05;;;;;;;0.10;0.10;;;13.30;99.90;;;;;;5062087;28;20182;-83
2023/04/17 08:03:30;;;;;;;0.10;0.10;;;13.50;99.90;;;;;;5064631;28;20659;-83
2023/04/17 08:05:57;;;;;;;0.10;0.10;;;13.60;99.90;;;;;;5064636;28;20209;-83
2023/04/17 08:08:23;;;;;;;0.10;0.10;;;13.80;99.90;;;;;;5065170;28;20529;-83
2023/04/17 08:10:49;;;;;;;0.10;0.10;;;14.10;99.90;;;;;;5063839;28;20182;-83
2023/04/17 08:13:15;;;;;;;0.10;0.10;;;13.90;99.90;;;;;;5064386;28;20180;-83
2023/04/17 08:15:40;;;;;;;0.10;0.10;;;13.90;99.90;;;;;;5063686;28;20196;-83
2023/04/17 08:18:08;;;;;;;0.10;0.10;;;13.70;99.90;;;;;;5061386;28;20191;-83
2023/04/17 08:20:34;;;;;;;0.10;0.10;;;13.30;99.90;;;;;;5060312;28;20295;-83
2023/04/17 08:23:01;;;;;;;0.10;0.10;;;12.90;99.90;;;;;;5063104;28;20176;-83
2023/04/17 08:25:27;;;;;;;0.10;0.10;;;12.60;99.90;;;;;;5059756;28;20198;-83
2023/04/17 08:27:53;;;;;;;0.10;0.10;;;12.60;99.90;;;;;;5062676;28;20207;-83
2023/04/17 08:30:19;;;;;;;0.10;0.10;;;12.50;99.90;;;;;;5057599;28;20895;-82
2023/04/17 08:32:46;;;;;;;0.10;0.10;;;12.60;99.90;;;;;;5065189;28;20177;-84
2023/04/17 08:35:13;;;;;;;0.10;0.10;;;12.80;99.90;;;;;;5061698;28;20209;-83
2023/04/17 08:37:40;;;;;;;0.10;0.10;;;12.70;99.90;;;;;;5054360;28;20688;-84
2023/04/17 08:40:08;;;;;;;0.10;0.10;;;12.70;99.90;;;;;;5060755;28;20569;-85
2023/04/17 08:42:35;;;;;;;0.10;0.10;;;12.50;99.90;;;;;;5058692;28;20296;-84
2023/04/17 08:45:03;;;;;;;0.10;0.10;;;12.10;99.90;;;;;;5064985;28;20211;-83
2023/04/17 08:47:29;;;;;;;0.10;0.10;;;12.00;99.90;;;;;;5058962;28;20300;-84
2023/04/17 08:49:56;;;;;;;0.10;0.10;;;12.00;99.90;;;;;;5056774;28;20304;-83
2023/04/17 08:52:22;;;;;;;0.10;0.10;;;12.00;99.90;;;;;;5057296;28;20203;-84
2023/04/17 08:54:48;;;;;;;0.10;0.10;;;11.90;99.90;;;;;;5055990;28;20204;-83
2023/04/17 08:57:14;;;;;;;0.10;0.10;;;12.10;99.90;;;;;;5059264;28;20207;-82
2023/04/17 08:59:41;;;;;;;0.10;0.10;;;11.90;99.90;;;;;;5056673;28;20193;-83
2023/04/17 09:02:08;;;;;;;0.10;0.10;;;11.70;99.90;;;;;;5063478;28;20693;-85
2023/04/17 09:04:37;;;;;;;0.27;0.27;;;11.60;99.90;;;;;;5059637;28;20752;-84
2023/04/17 09:07:05;;;;;;;0.10;0.10;;;11.50;99.90;;;;;;5057840;28;20181;-83
2023/04/17 09:09:49;;;;;;;0.10;0.10;;;11.60;99.90;;;;;;5078040;28;20196;-83
2023/04/17 09:12:15;;;;;;;0.10;0.10;;;11.50;99.90;;;;;;5062999;28;20906;-84
2023/04/17 09:14:41;;;;;;;0.10;0.10;;;11.60;99.90;;;;;;5061833;28;20216;-84
2023/04/17 09:17:06;;;;;;;0.20;0.20;;;11.40;99.90;;;;;;5061936;28;20200;-84
2023/04/17 09:19:32;;;;;;;0.10;0.10;;;11.10;99.90;;;;;;5058468;28;20230;-84
2023/04/17 09:22:16;;;;;;;0.10;0.10;;;11.10;99.90;;;;;;5056382;28;20185;-84
2023/04/17 09:24:43;;;;;;;0.10;0.10;;;11.20;99.90;;;;;;5055255;28;20211;-83
2023/04/17 09:27:22;;;;;;;0.10;0.10;;;11.30;99.90;;;;;;5060247;28;20196;-84
2023/04/17 09:30:03;;;;;;;0.00;0.00;;;11.40;99.90;;;;;;5059454;28;20196;-84
2023/04/17 09:32:32;;;;;;;0.10;0.10;;;11.60;99.90;;;;;;5060063;28;20234;-84
2023/04/17 09:35:01;;;;;;;0.10;0.10;;;11.70;99.90;;;;;;5060842;28;20708;-83
2023/04/17 09:37:53;;;;;;;0.10;0.10;;;11.70;99.90;;;;;;5060196;28;21606;-84
2023/04/17 09:40:20;;;;;;;0.10;0.10;;;11.80;99.90;;;;;;5056706;28;20565;-84
2023/04/17 09:42:58;;;;;;;0.10;0.10;;;12.00;99.90;;;;;;5060683;28;20177;-83
2023/04/17 09:45:27;;;;;;;0.10;0.10;;;12.10;99.90;;;;;;5061429;28;20201;-83
2023/04/17 09:47:54;;;;;;;0.10;0.10;;;12.10;99.90;;;;;;5061318;28;20284;-84
2023/04/17 09:50:21;;;;;;;0.10;0.10;;;12.30;99.90;;;;;;5059012;28;20181;-84
2023/04/17 09:52:54;;;;;;;0.10;0.10;;;12.70;99.90;;;;;;5058128;28;20205;-84
2023/04/17 09:55:28;;;;;;;0.10;0.10;;;13.20;99.90;;;;;;5058000;28;20228;-83
2023/04/17 09:57:54;;;;;;;0.10;0.10;;;13.60;99.90;;;;;;5057583;28;20188;-84
2023/04/17 10:00:22;;;;;;;0.10;0.10;;;13.90;99.90;;;;;;5057898;28;20181;-84
2023/04/17 10:02:50;;;;;;;0.10;0.10;;;13.20;99.90;;;;;;5060728;28;20832;-84
2023/04/17 10:05:17;;;;;;;0.10;0.10;;;13.50;99.90;;;;;;5063146;28;20202;-84
2023/04/17 10:07:44;;;;;;;0.10;0.10;;;13.40;99.90;;;;;;5062569;28;20199;-83
2023/04/17 10:10:22;;;;;;;0.10;0.10;;;13.50;99.90;;;;;;5057823;28;20189;-83
2023/04/17 10:12:49;;;;;;;0.07;0.07;;;13.30;99.90;;;;;;5078826;28;20215;-82
2023/04/17 10:15:15;;;;;;;0.10;0.10;;;12.90;99.90;;;;;;5058264;28;20213;-84
2023/04/17 10:17:40;;;;;;;0.10;0.10;;;12.70;99.90;;;;;;5060162;28;20219;-84
2023/04/17 10:20:32;;;;;;;0.10;0.10;;;13.00;99.90;;;;;;5056745;28;20200;-83
2023/04/17 10:22:57;;;;;;;0.10;0.10;;;12.90;99.90;;;;;;5057411;28;20182;-83
2023/04/17 10:25:28;;;;;;;0.10;0.10;;;12.90;99.90;;;;;;5056499;28;20211;-83
2023/04/17 10:27:57;;;;;;;0.10;0.10;;;13.00;99.90;;;;;;5058254;28;20181;-83
2023/04/17 10:30:23;;;;;;;0.10;0.10;;;12.90;99.90;;;;;;5062699;28;20213;-82
2023/04/17 10:33:20;;;;;;;0.37;0.37;;;12.90;99.90;;;;;;5061884;28;20259;-82
2023/04/17 10:35:46;;;;;;;0.10;0.10;;;13.00;99.90;;;;;;5056316;28;20605;-83
2023/04/17 10:38:12;;;;;;;0.10;0.10;;;13.00;99.90;;;;;;5063436;28;20178;-83
2023/04/17 10:40:38;;;;;;;0.10;0.10;;;12.90;99.90;;;;;;5053422;28;20651;-83
2023/04/17 10:43:16;;;;;;;0.10;0.10;;;13.00;99.90;;;;;;5059135;28;20591;-83
2023/04/17 10:45:56;;;;;;;0.10;0.10;;;13.30;99.90;;;;;;5063460;28;20193;-83
2023/04/17 10:48:31;;;;;;;0.10;0.10;;;13.40;99.90;;;;;;5061143;28;20172;-83
2023/04/17 10:50:59;;;;;;;0.10;0.10;;;13.90;99.90;;;;;;5061455;28;20186;-83
2023/04/17 10:53:41;;;;;;;0.10;0.10;;;14.30;99.90;;;;;;5061112;28;20231;-83
2023/04/17 10:56:08;;;;;;;0.10;0.10;;;14.20;99.90;;;;;;5060581;28;20230;-83
2023/04/17 10:58:53;;;;;;;0.10;0.10;;;14.40;99.90;;;;;;5063366;28;20184;-83
2023/04/17 11:01:19;;;;;;;0.10;0.10;;;14.50;99.90;;;;;;5060442;28;20550;-83
2023/04/17 11:03:45;;;;;;;0.10;0.10;;;14.70;99.90;;;;;;5062588;28;20287;-83
2023/04/17 11:06:12;;;;;;;0.10;0.10;;;14.40;99.90;;;;;;5061634;28;20207;-83
2023/04/17 11:08:38;;;;;;;0.10;0.10;;;14.90;99.90;;;;;;5059120;28;20661;-83
2023/04/17 11:11:03;;;;;;;0.10;0.10;;;14.80;99.90;;;;;;5062209;28;20196;-83
2023/04/17 11:13:32;;;;;;;0.10;0.10;;;14.40;99.90;;;;;;5063740;28;20185;-83
2023/04/17 11:15:58;;;;;;;0.10;0.10;;;14.20;99.90;;;;;;5064400;28;20209;-83
2023/04/17 11:18:25;;;;;;;0.10;0.10;;;13.80;99.90;;;;;;5059162;28;20187;-83
2023/04/17 11:20:51;;;;;;;0.10;0.10;;;13.80;99.90;;;;;;5059953;28;20233;-84
2023/04/17 11:23:17;;;;;;;0.10;0.10;;;13.90;99.90;;;;;;5058161;28;20203;-83
2023/04/17 11:25:43;;;;;;;0.10;0.10;;;13.90;99.90;;;;;;5058911;28;20207;-82
2023/04/17 11:28:10;;;;;;;0.10;0.10;;;14.10;99.90;;;;;;5059110;28;20281;-83
2023/04/17 11:30:43;;;;;;;0.10;0.10;;;14.00;99.90;;;;;;5057942;28;20188;-83
2023/04/17 11:33:14;;;;;;;0.10;0.10;;;13.80;99.90;;;;;;5064499;28;20182;-83
2023/04/17 11:35:41;;;;;;;0.10;0.10;;;13.70;99.90;;;;;;5065139;28;20516;-83
2023/04/17 11:38:20;;;;;;;0.10;0.10;;;13.70;99.90;;;;;;5061152;28;20561;-82
2023/04/17 11:40:50;;;;;;;0.10;0.10;;;13.60;99.90;;;;;;5058093;28;20184;-85
2023/04/17 11:43:16;;;;;;;0.10;0.10;;;13.60;99.90;;;;;;5069662;28;20602;-84
2023/04/17 11:45:45;;;;;;;0.10;0.10;;;13.70;99.90;;;;;;5066332;28;20202;-83
2023/04/17 11:48:12;;;;;;;0.10;0.10;;;13.90;99.90;;;;;;5068206;28;20186;-83
2023/04/17 11:50:38;;;;;;;0.10;0.10;;;14.20;99.90;;;;;;5065945;28;20186;-83
2023/04/17 11:53:04;;;;;;;0.10;0.10;;;14.20;99.90;;;;;;5070536;28;20188;-84
2023/04/17 11:55:30;;;;;;;0.10;0.10;;;14.50;99.90;;;;;;5063093;28;20200;-83
2023/04/17 11:58:05;;;;;;;0.10;0.10;;;14.10;99.90;;;;;;5065533;28;20218;-82
2023/04/17 12:00:31;;;;;;;0.10;0.10;;;14.60;99.90;;;;;;5070422;28;20212;-83
2023/04/17 12:03:01;;;;;;;0.10;0.10;;;14.20;99.90;;;;;;5060659;28;20196;-82
2023/04/17 12:05:28;;;;;;;0.10;0.10;;;14.10;99.90;;;;;;5064985;28;20214;-84
2023/04/17 12:08:07;;;;;;;0.20;0.20;;;14.10;99.90;;;;;;5069031;28;20188;-83
2023/04/17 12:10:41;;;;;;;0.10;0.10;;;13.90;99.90;;;;;;5067842;28;20219;-83
2023/04/17 12:13:07;;;;;;;0.10;0.10;;;13.60;99.90;;;;;;5067231;28;20201;-84
2023/04/17 12:15:34;;;;;;;0.10;0.10;;;13.50;99.90;;;;;;5069920;28;20214;-83
2023/04/17 12:18:08;;;;;;;0.10;0.10;;;13.40;99.90;;;;;;5063688;28;20187;-84
2023/04/17 12:20:35;;;;;;;0.10;0.10;;;13.50;99.90;;;;;;5065780;28;20273;-83
2023/04/17 12:23:02;;;;;;;0.10;0.10;;;13.60;99.90;;;;;;5061695;28;20221;-83
2023/04/17 12:25:28;;;;;;;0.10;0.10;;;13.60;99.90;;;;;;5058685;28;20243;-84
2023/04/17 12:27:55;;;;;;;0.10;0.10;;;13.70;99.90;;;;;;5061383;28;20197;-83
2023/04/17 12:30:25;;;;;;;0.43;0.43;;;13.80;99.90;;;;;;5064958;28;20193;-84
2023/04/17 12:32:51;;;;;;;0.10;0.10;;;13.80;99.90;;;;;;5060485;28;20186;-83
2023/04/17 12:35:21;;;;;;;0.10;0.10;;;13.90;99.90;;;;;;5064799;28;20230;-84
2023/04/17 12:37:50;;;;;;;0.10;0.10;;;13.80;99.90;;;;;;5063779;28;20729;-83
2023/04/17 12:40:20;;;;;;;0.10;0.10;;;13.90;99.90;;;;;;5061767;28;20691;-84
2023/04/17 12:42:46;;;;;;;0.10;0.10;;;13.80;99.90;;;;;;5064882;28;20263;-84
2023/04/17 12:45:13;;;;;;;0.10;0.10;;;13.60;99.90;;;;;;5060912;28;20214;-83
2023/04/17 12:47:39;;;;;;;0.10;0.10;;;13.80;99.90;;;;;;5060004;28;20198;-84